sensor_id;sensor_type;location;lat;lon;timestamp;temperature;humidity
5806;DHT22;2929;50.810;8.342;2022-11-12T07:56:35;0.90;99.90
5806;DHT22;2929;50.810;8.342;2022-11-12T07:59:22;0.70;99.90
5806;DHT22;2929;50.810;8.342;2022-11-12T08:02:08;0.70;99.90
5806;DHT22;2929;50.810;8.342;2022-11-12T08:04:54;0.70;99.90
5806;DHT22;2929;50.810;8.342;2022-11-12T08:07:39;0.80;99.90
5806;DHT22;2929;50.810;8.342;2022-11-12T08:10:25;0.90;99.90
5806;DHT22;2929;50.810;8.342;2022-11-12T08:13:11;1.00;99.90
5806;DHT22;2929;50.810;8.342;2022-11-12T08:15:58;1.20;99.90
5806;DHT22;2929;50.810;8.342;2022-11-12T08:18:44;1.20;99.90
5806;DHT22;2929;50.810;8.342;2022-11-12T08:21:30;1.30;99.90
5806;DHT22;2929;50.810;8.342;2022-11-12T08:24:16;1.30;99.90
5806;DHT22;2929;50.810;8.342;2022-11-12T08:27:02;1.40;99.90
5806;DHT22;2929;50.810;8.342;2022-11-12T08:29:47;1.50;99.90
5806;DHT22;2929;50.810;8.342;2022-11-12T08:32:34;1.50;99.90
5806;DHT22;2929;50.810;8.342;2022-11-12T08:35:20;1.60;99.90
5806;DHT22;2929;50.810;8.342;2022-11-12T08:38:06;1.70;99.90
5806;DHT22;2929;50.810;8.342;2022-11-12T08:40:53;1.70;99.90
5806;DHT22;2929;50.810;8.342;2022-11-12T08:43:40;1.80;99.90
5806;DHT22;2929;50.810;8.342;2022-11-12T08:46:26;1.90;99.90
5806;DHT22;2929;50.810;8.342;2022-11-12T08:49:13;2.10;99.90
5806;DHT22;2929;50.810;8.342;2022-11-12T08:51:58;2.10;99.90
5806;DHT22;2929;50.810;8.342;2022-11-12T08:54:44;2.20;99.90
5806;DHT22;2929;50.810;8.342;2022-11-12T08:57:29;2.30;99.90
5806;DHT22;2929;50.810;8.342;2022-11-12T09:00:16;2.30;99.90
5806;DHT22;2929;50.810;8.342;2022-11-12T09:03:02;2.30;99.90
5806;DHT22;2929;50.810;8.342;2022-11-12T09:05:50;2.40;99.90
5806;DHT22;2929;50.810;8.342;2022-11-12T09:08:36;2.30;99.90
5806;DHT22;2929;50.810;8.342;2022-11-12T09:11:23;2.30;99.90
5806;DHT22;2929;50.810;8.342;2022-11-12T09:14:08;2.40;99.90
5806;DHT22;2929;50.810;8.342;2022-11-12T09:16:54;2.50;99.90
5806;DHT22;2929;50.810;8.342;2022-11-12T09:19:40;2.60;99.90
5806;DHT22;2929;50.810;8.342;2022-11-12T09:22:27;2.80;99.90
5806;DHT22;2929;50.810;8.342;2022-11-12T09:25:12;2.90;99.90
5806;DHT22;2929;50.810;8.342;2022-11-12T09:28:05;3.00;99.90
5806;DHT22;2929;50.810;8.342;2022-11-12T09:30:51;3.10;99.90
5806;DHT22;2929;50.810;8.342;2022-11-12T09:33:37;3.20;99.90
5806;DHT22;2929;50.810;8.342;2022-11-12T09:36:22;3.30;99.90
5806;DHT22;2929;50.810;8.342;2022-11-12T09:39:10;3.60;99.90
5806;DHT22;2929;50.810;8.342;2022-11-12T09:41:56;3.70;99.90
5806;DHT22;2929;50.810;8.342;2022-11-12T09:44:45;3.80;99.90
5806;DHT22;2929;50.810;8.342;2022-11-12T09:47:37;3.90;99.90
5806;DHT22;2929;50.810;8.342;2022-11-12T09:50:28;4.10;99.90
5806;DHT22;2929;50.810;8.342;2022-11-12T09:53:17;4.30;99.90
5806;DHT22;2929;50.810;8.342;2022-11-12T09:56:08;4.40;99.90
5806;DHT22;2929;50.810;8.342;2022-11-12T09:58:55;4.70;99.90
5806;DHT22;2929;50.810;8.342;2022-11-12T10:01:50;4.80;99.90
5806;DHT22;2929;50.810;8.342;2022-11-12T10:04:54;5.10;99.90
5806;DHT22;2929;50.810;8.342;2022-11-12T10:07:50;5.40;99.90
5806;DHT22;2929;50.810;8.342;2022-11-12T10:10:43;5.60;99.90
5806;DHT22;2929;50.810;8.342;2022-11-12T10:13:41;5.90;99.90
5806;DHT22;2929;50.810;8.342;2022-11-12T10:16:46;6.10;99.90
5806;DHT22;2929;50.810;8.342;2022-11-12T10:19:44;6.40;99.90
5806;DHT22;2929;50.810;8.342;2022-11-12T10:22:56;6.70;99.90
5806;DHT22;2929;50.810;8.342;2022-11-12T10:25:44;7.00;99.90
5806;DHT22;2929;50.810;8.342;2022-11-12T10:28:37;7.20;99.90
5806;DHT22;2929;50.810;8.342;2022-11-12T10:31:24;7.50;99.90
5806;DHT22;2929;50.810;8.342;2022-11-12T10:34:15;7.90;99.90
5806;DHT22;2929;50.810;8.342;2022-11-12T10:37:04;8.20;99.90
5806;DHT22;2929;50.810;8.342;2022-11-12T10:39:51;8.50;99.90
5806;DHT22;2929;50.810;8.342;2022-11-12T10:42:55;9.00;99.90
5806;DHT22;2929;50.810;8.342;2022-11-12T10:45:44;9.30;99.90
5806;DHT22;2929;50.810;8.342;2022-11-12T10:48:31;9.80;99.90
5806;DHT22;2929;50.810;8.342;2022-11-12T10:51:23;9.90;99.90
5806;DHT22;2929;50.810;8.342;2022-11-12T10:54:20;10.10;99.90
5806;DHT22;2929;50.810;8.342;2022-11-12T10:57:19;10.10;99.90
5806;DHT22;2929;50.810;8.342;2022-11-12T11:00:14;10.30;99.90
5806;DHT22;2929;50.810;8.342;2022-11-12T11:03:04;10.20;99.90
5806;DHT22;2929;50.810;8.342;2022-11-12T11:05:53;10.10;99.90
5806;DHT22;2929;50.810;8.342;2022-11-12T11:08:41;10.10;99.90
5806;DHT22;2929;50.810;8.342;2022-11-12T11:11:27;10.10;99.90
5806;DHT22;2929;50.810;8.342;2022-11-12T11:14:34;10.10;99.90
5806;DHT22;2929;50.810;8.342;2022-11-12T11:17:21;10.10;99.90
5806;DHT22;2929;50.810;8.342;2022-11-12T11:20:17;10.20;99.90
5806;DHT22;2929;50.810;8.342;2022-11-12T11:23:11;10.60;99.90
5806;DHT22;2929;50.810;8.342;2022-11-12T11:26:06;10.70;99.90
5806;DHT22;2929;50.810;8.342;2022-11-12T11:29:04;11.00;99.90
5806;DHT22;2929;50.810;8.342;2022-11-12T11:32:00;11.10;99.90
5806;DHT22;2929;50.810;8.342;2022-11-12T11:34:57;11.20;99.90
5806;DHT22;2929;50.810;8.342;2022-11-12T11:41:51;11.50;99.90
5806;DHT22;2929;50.810;8.342;2022-11-12T11:44:45;11.70;99.90
5806;DHT22;2929;50.810;8.342;2022-11-12T11:47:41;11.70;99.90
5806;DHT22;2929;50.810;8.342;2022-11-12T11:50:31;11.70;99.90
5806;DHT22;2929;50.810;8.342;2022-11-12T11:53:23;11.90;99.90
5806;DHT22;2929;50.810;8.342;2022-11-12T11:56:15;12.20;99.90
5806;DHT22;2929;50.810;8.342;2022-11-12T11:59:27;12.40;99.90
5806;DHT22;2929;50.810;8.342;2022-11-12T12:02:31;12.50;99.90
5806;DHT22;2929;50.810;8.342;2022-11-12T12:05:35;12.60;99.90
5806;DHT22;2929;50.810;8.342;2022-11-12T12:08:38;12.60;99.90
5806;DHT22;2929;50.810;8.342;2022-11-12T12:11:33;12.40;99.90
5806;DHT22;2929;50.810;8.342;2022-11-12T12:14:35;12.00;99.90
5806;DHT22;2929;50.810;8.342;2022-11-12T12:17:35;11.90;99.90
5806;DHT22;2929;50.810;8.342;2022-11-12T12:20:28;11.90;99.90
5806;DHT22;2929;50.810;8.342;2022-11-12T12:23:23;12.00;99.90
5806;DHT22;2929;50.810;8.342;2022-11-12T12:26:15;12.10;99.90
5806;DHT22;2929;50.810;8.342;2022-11-12T12:29:06;12.20;99.90
5806;DHT22;2929;50.810;8.342;2022-11-12T12:31:59;12.30;99.90
5806;DHT22;2929;50.810;8.342;2022-11-12T12:34:48;12.40;99.90
5806;DHT22;2929;50.810;8.342;2022-11-12T12:37:38;12.50;99.90
5806;DHT22;2929;50.810;8.342;2022-11-12T12:40:31;12.60;99.90
5806;DHT22;2929;50.810;8.342;2022-11-12T12:43:39;12.50;99.90
5806;DHT22;2929;50.810;8.342;2022-11-12T12:46:27;12.40;99.90
5806;DHT22;2929;50.810;8.342;2022-11-12T12:49:17;12.40;99.90
5806;DHT22;2929;50.810;8.342;2022-11-12T12:52:03;12.30;99.90
5806;DHT22;2929;50.810;8.342;2022-11-12T12:54:56;12.40;99.90
5806;DHT22;2929;50.810;8.342;2022-11-12T12:57:42;12.30;99.90
5806;DHT22;2929;50.810;8.342;2022-11-12T13:00:35;12.20;99.90
5806;DHT22;2929;50.810;8.342;2022-11-12T13:03:47;12.00;99.90
5806;DHT22;2929;50.810;8.342;2022-11-12T13:06:34;11.90;99.90
5806;DHT22;2929;50.810;8.342;2022-11-12T13:09:23;11.70;99.90
5806;DHT22;2929;50.810;8.342;2022-11-12T13:12:10;11.70;99.90
5806;DHT22;2929;50.810;8.342;2022-11-12T13:15:12;11.80;99.90
5806;DHT22;2929;50.810;8.342;2022-11-12T13:18:00;11.80;99.90
5806;DHT22;2929;50.810;8.342;2022-11-12T13:21:07;11.70;99.90
5806;DHT22;2929;50.810;8.342;2022-11-12T13:23:58;11.70;99.90
5806;DHT22;2929;50.810;8.342;2022-11-12T13:26:55;11.60;99.90
5806;DHT22;2929;50.810;8.342;2022-11-12T13:29:43;11.50;99.90
5806;DHT22;2929;50.810;8.342;2022-11-12T13:32:40;11.50;99.90
5806;DHT22;2929;50.810;8.342;2022-11-12T13:35:29;11.30;99.90
5806;DHT22;2929;50.810;8.342;2022-11-12T13:38:15;11.30;99.90
5806;DHT22;2929;50.810;8.342;2022-11-12T13:41:07;11.30;99.90
5806;DHT22;2929;50.810;8.342;2022-11-12T13:43:55;11.30;99.90
5806;DHT22;2929;50.810;8.342;2022-11-12T13:46:41;11.20;99.90
5806;DHT22;2929;50.810;8.342;2022-11-12T13:49:28;11.20;99.90
5806;DHT22;2929;50.810;8.342;2022-11-12T13:52:17;11.20;99.90
5806;DHT22;2929;50.810;8.342;2022-11-12T13:55:05;11.00;99.90
5806;DHT22;2929;50.810;8.342;2022-11-12T13:57:52;11.00;99.90
5806;DHT22;2929;50.810;8.342;2022-11-12T14:00:38;11.00;99.90
5806;DHT22;2929;50.810;8.342;2022-11-12T14:03:26;11.00;99.90
5806;DHT22;2929;50.810;8.342;2022-11-12T14:06:17;11.00;99.90
5806;DHT22;2929;50.810;8.342;2022-11-12T14:09:30;11.00;99.90
5806;DHT22;2929;50.810;8.342;2022-11-12T14:12:44;10.90;99.90
5806;DHT22;2929;50.810;8.342;2022-11-12T14:15:58;10.90;99.90
5806;DHT22;2929;50.810;8.342;2022-11-12T14:19:07;10.90;99.90
5806;DHT22;2929;50.810;8.342;2022-11-12T14:22:00;10.90;99.90
5806;DHT22;2929;50.810;8.342;2022-11-12T14:24:51;10.70;99.90
5806;DHT22;2929;50.810;8.342;2022-11-12T14:27:38;10.70;99.90
5806;DHT22;2929;50.810;8.342;2022-11-12T14:30:25;10.70;99.90
5806;DHT22;2929;50.810;8.342;2022-11-12T14:33:18;10.70;99.90
5806;DHT22;2929;50.810;8.342;2022-11-12T14:36:06;10.70;99.90
5806;DHT22;2929;50.810;8.342;2022-11-12T14:42:28;10.50;99.90
5806;DHT22;2929;50.810;8.342;2022-11-12T14:45:15;10.30;99.90
5806;DHT22;2929;50.810;8.342;2022-11-12T14:48:01;10.40;99.90
5806;DHT22;2929;50.810;8.342;2022-11-12T14:50:49;10.30;99.90
5806;DHT22;2929;50.810;8.342;2022-11-12T14:53:38;10.30;99.90
5806;DHT22;2929;50.810;8.342;2022-11-12T14:56:28;10.30;99.90
5806;DHT22;2929;50.810;8.342;2022-11-12T14:59:18;10.20;99.90
5806;DHT22;2929;50.810;8.342;2022-11-12T15:02:07;10.10;99.90
5806;DHT22;2929;50.810;8.342;2022-11-12T15:04:58;10.10;99.90
5806;DHT22;2929;50.810;8.342;2022-11-12T15:07:52;9.90;99.90
5806;DHT22;2929;50.810;8.342;2022-11-12T15:10:39;9.90;99.90
5806;DHT22;2929;50.810;8.342;2022-11-12T15:13:26;9.90;99.90
5806;DHT22;2929;50.810;8.342;2022-11-12T15:16:18;9.70;99.90
5806;DHT22;2929;50.810;8.342;2022-11-12T15:19:17;9.70;99.90
5806;DHT22;2929;50.810;8.342;2022-11-12T15:22:03;9.70;99.90
5806;DHT22;2929;50.810;8.342;2022-11-12T15:24:49;9.60;99.90
5806;DHT22;2929;50.810;8.342;2022-11-12T15:27:37;9.40;99.90
5806;DHT22;2929;50.810;8.342;2022-11-12T15:30:24;9.30;99.90
5806;DHT22;2929;50.810;8.342;2022-11-12T15:33:21;9.20;99.90
5806;DHT22;2929;50.810;8.342;2022-11-12T15:36:14;9.10;99.90
5806;DHT22;2929;50.810;8.342;2022-11-12T15:39:00;8.90;99.90
5806;DHT22;2929;50.810;8.342;2022-11-12T15:41:47;8.80;99.90
5806;DHT22;2929;50.810;8.342;2022-11-12T15:44:39;8.70;99.90
5806;DHT22;2929;50.810;8.342;2022-11-12T15:47:25;8.70;99.90
5806;DHT22;2929;50.810;8.342;2022-11-12T15:50:16;8.60;99.90
5806;DHT22;2929;50.810;8.342;2022-11-12T15:53:02;8.50;99.90
5806;DHT22;2929;50.810;8.342;2022-11-12T15:55:48;8.40;99.90
5806;DHT22;2929;50.810;8.342;2022-11-12T15:58:35;8.30;99.90
5806;DHT22;2929;50.810;8.342;2022-11-12T16:01:23;8.30;99.90
5806;DHT22;2929;50.810;8.342;2022-11-12T16:04:10;8.20;99.90
5806;DHT22;2929;50.810;8.342;2022-11-12T16:06:58;8.20;99.90
5806;DHT22;2929;50.810;8.342;2022-11-12T16:09:44;8.10;99.90
5806;DHT22;2929;50.810;8.342;2022-11-12T16:12:29;8.10;99.90
5806;DHT22;2929;50.810;8.342;2022-11-12T16:15:16;8.00;99.90
5806;DHT22;2929;50.810;8.342;2022-11-12T16:18:03;7.90;99.90
5806;DHT22;2929;50.810;8.342;2022-11-12T16:20:49;7.70;99.90
5806;DHT22;2929;50.810;8.342;2022-11-12T16:23:36;7.60;99.90
5806;DHT22;2929;50.810;8.342;2022-11-12T16:26:26;7.50;99.90
5806;DHT22;2929;50.810;8.342;2022-11-12T16:29:12;7.50;99.90
5806;DHT22;2929;50.810;8.342;2022-11-12T16:31:58;7.50;99.90
5806;DHT22;2929;50.810;8.342;2022-11-12T16:34:44;7.50;99.90
5806;DHT22;2929;50.810;8.342;2022-11-12T16:37:29;7.50;99.90
5806;DHT22;2929;50.810;8.342;2022-11-12T16:40:19;7.40;99.90
5806;DHT22;2929;50.810;8.342;2022-11-12T16:43:05;7.40;99.90
5806;DHT22;2929;50.810;8.342;2022-11-12T16:45:50;7.20;99.90
5806;DHT22;2929;50.810;8.342;2022-11-12T16:48:36;7.10;99.90
5806;DHT22;2929;50.810;8.342;2022-11-12T16:51:22;7.10;99.90
5806;DHT22;2929;50.810;8.342;2022-11-12T16:54:08;7.00;99.90
5806;DHT22;2929;50.810;8.342;2022-11-12T16:56:54;7.00;99.90
5806;DHT22;2929;50.810;8.342;2022-11-12T16:59:41;7.00;99.90
5806;DHT22;2929;50.810;8.342;2022-11-12T17:02:26;7.00;99.90
5806;DHT22;2929;50.810;8.342;2022-11-12T17:05:15;6.80;99.90
5806;DHT22;2929;50.810;8.342;2022-11-12T17:08:03;6.80;99.90
5806;DHT22;2929;50.810;8.342;2022-11-12T17:10:49;6.70;99.90
5806;DHT22;2929;50.810;8.342;2022-11-12T17:13:36;6.60;99.90
5806;DHT22;2929;50.810;8.342;2022-11-12T17:16:22;6.50;99.90
5806;DHT22;2929;50.810;8.342;2022-11-12T17:19:09;6.50;99.90
5806;DHT22;2929;50.810;8.342;2022-11-12T17:21:54;6.40;99.90
5806;DHT22;2929;50.810;8.342;2022-11-12T17:24:40;6.40;99.90
5806;DHT22;2929;50.810;8.342;2022-11-12T17:27:25;6.30;99.90
5806;DHT22;2929;50.810;8.342;2022-11-12T17:30:13;6.30;99.90
5806;DHT22;2929;50.810;8.342;2022-11-12T17:32:59;6.20;99.90
5806;DHT22;2929;50.810;8.342;2022-11-12T17:35:44;6.20;99.90
5806;DHT22;2929;50.810;8.342;2022-11-12T17:38:30;6.20;99.90
5806;DHT22;2929;50.810;8.342;2022-11-12T17:41:15;6.20;99.90
5806;DHT22;2929;50.810;8.342;2022-11-12T17:44:02;6.20;99.90
5806;DHT22;2929;50.810;8.342;2022-11-12T17:46:49;6.20;99.90
5806;DHT22;2929;50.810;8.342;2022-11-12T17:49:35;6.20;99.90
5806;DHT22;2929;50.810;8.342;2022-11-12T17:52:20;6.10;99.90
5806;DHT22;2929;50.810;8.342;2022-11-12T17:55:07;6.00;99.90
5806;DHT22;2929;50.810;8.342;2022-11-12T17:57:53;5.90;99.90
5806;DHT22;2929;50.810;8.342;2022-11-12T18:00:38;5.90;99.90
5806;DHT22;2929;50.810;8.342;2022-11-12T18:03:25;5.90;99.90
5806;DHT22;2929;50.810;8.342;2022-11-12T18:06:11;5.90;99.90
5806;DHT22;2929;50.810;8.342;2022-11-12T18:08:59;5.90;99.90
5806;DHT22;2929;50.810;8.342;2022-11-12T18:11:47;5.80;99.90
5806;DHT22;2929;50.810;8.342;2022-11-12T18:14:32;5.80;99.90
5806;DHT22;2929;50.810;8.342;2022-11-12T18:17:18;5.80;99.90
5806;DHT22;2929;50.810;8.342;2022-11-12T18:20:06;5.80;99.90
5806;DHT22;2929;50.810;8.342;2022-11-12T18:22:52;5.80;99.90
5806;DHT22;2929;50.810;8.342;2022-11-12T18:25:38;5.80;99.90
5806;DHT22;2929;50.810;8.342;2022-11-12T18:28:24;5.80;99.90
5806;DHT22;2929;50.810;8.342;2022-11-12T18:31:10;5.80;99.90
5806;DHT22;2929;50.810;8.342;2022-11-12T18:33:56;5.80;99.90
5806;DHT22;2929;50.810;8.342;2022-11-12T18:36:43;5.70;99.90
5806;DHT22;2929;50.810;8.342;2022-11-12T18:39:29;5.70;99.90
5806;DHT22;2929;50.810;8.342;2022-11-12T18:42:15;5.70;99.90
5806;DHT22;2929;50.810;8.342;2022-11-12T18:45:01;5.70;99.90
5806;DHT22;2929;50.810;8.342;2022-11-12T18:47:46;5.60;99.90
5806;DHT22;2929;50.810;8.342;2022-11-12T18:50:32;5.60;99.90
5806;DHT22;2929;50.810;8.342;2022-11-12T18:53:19;5.50;99.90
5806;DHT22;2929;50.810;8.342;2022-11-12T18:56:06;5.40;99.90
5806;DHT22;2929;50.810;8.342;2022-11-12T18:58:52;5.30;99.90
5806;DHT22;2929;50.810;8.342;2022-11-12T19:01:38;5.30;99.90
5806;DHT22;2929;50.810;8.342;2022-11-12T19:04:23;5.20;99.90
5806;DHT22;2929;50.810;8.342;2022-11-12T19:07:09;5.30;99.90
5806;DHT22;2929;50.810;8.342;2022-11-12T19:09:56;5.30;99.90
5806;DHT22;2929;50.810;8.342;2022-11-12T19:12:41;5.30;99.90
5806;DHT22;2929;50.810;8.342;2022-11-12T19:15:27;5.30;99.90
5806;DHT22;2929;50.810;8.342;2022-11-12T19:18:13;5.30;99.90
5806;DHT22;2929;50.810;8.342;2022-11-12T19:21:02;5.20;99.90
5806;DHT22;2929;50.810;8.342;2022-11-12T19:23:49;5.10;99.90
5806;DHT22;2929;50.810;8.342;2022-11-12T19:26:36;5.10;99.90
5806;DHT22;2929;50.810;8.342;2022-11-12T19:29:22;5.00;99.90
5806;DHT22;2929;50.810;8.342;2022-11-12T19:32:07;4.90;99.90
5806;DHT22;2929;50.810;8.342;2022-11-12T19:34:53;4.80;99.90
5806;DHT22;2929;50.810;8.342;2022-11-12T19:37:39;4.80;99.90
5806;DHT22;2929;50.810;8.342;2022-11-12T19:40:24;4.70;99.90
5806;DHT22;2929;50.810;8.342;2022-11-12T19:43:11;4.60;99.90
5806;DHT22;2929;50.810;8.342;2022-11-12T19:45:57;4.60;99.90
5806;DHT22;2929;50.810;8.342;2022-11-12T19:48:43;4.60;99.90
5806;DHT22;2929;50.810;8.342;2022-11-12T19:51:28;4.60;99.90
5806;DHT22;2929;50.810;8.342;2022-11-12T19:54:14;4.50;99.90
5806;DHT22;2929;50.810;8.342;2022-11-12T19:56:59;4.50;99.90
5806;DHT22;2929;50.810;8.342;2022-11-12T19:59:47;4.40;99.90
5806;DHT22;2929;50.810;8.342;2022-11-12T20:02:32;4.50;99.90
5806;DHT22;2929;50.810;8.342;2022-11-12T20:05:18;4.50;99.90
5806;DHT22;2929;50.810;8.342;2022-11-12T20:08:04;4.60;99.90
5806;DHT22;2929;50.810;8.342;2022-11-12T20:10:50;4.60;99.90
5806;DHT22;2929;50.810;8.342;2022-11-12T20:13:35;4.50;99.90
5806;DHT22;2929;50.810;8.342;2022-11-12T20:16:22;4.40;99.90
5806;DHT22;2929;50.810;8.342;2022-11-12T20:19:10;4.40;99.90
5806;DHT22;2929;50.810;8.342;2022-11-12T20:21:56;4.30;99.90
5806;DHT22;2929;50.810;8.342;2022-11-12T20:24:41;4.30;99.90
5806;DHT22;2929;50.810;8.342;2022-11-12T20:27:27;4.20;99.90
5806;DHT22;2929;50.810;8.342;2022-11-12T20:30:13;4.20;99.90
5806;DHT22;2929;50.810;8.342;2022-11-12T20:33:00;4.00;99.90
5806;DHT22;2929;50.810;8.342;2022-11-12T20:35:46;4.00;99.90
5806;DHT22;2929;50.810;8.342;2022-11-12T20:38:35;4.00;99.90
5806;DHT22;2929;50.810;8.342;2022-11-12T20:41:22;4.00;99.90
5806;DHT22;2929;50.810;8.342;2022-11-12T20:44:08;4.00;99.90
5806;DHT22;2929;50.810;8.342;2022-11-12T20:46:53;4.00;99.90
5806;DHT22;2929;50.810;8.342;2022-11-12T20:49:40;4.00;99.90
5806;DHT22;2929;50.810;8.342;2022-11-12T20:52:26;4.10;99.90
5806;DHT22;2929;50.810;8.342;2022-11-12T20:55:13;4.10;99.90
5806;DHT22;2929;50.810;8.342;2022-11-12T20:57:59;4.00;99.90
5806;DHT22;2929;50.810;8.342;2022-11-12T21:00:44;4.00;99.90
5806;DHT22;2929;50.810;8.342;2022-11-12T21:03:31;4.00;99.90
5806;DHT22;2929;50.810;8.342;2022-11-12T21:06:20;3.90;99.90
5806;DHT22;2929;50.810;8.342;2022-11-12T21:09:06;3.90;99.90
5806;DHT22;2929;50.810;8.342;2022-11-12T21:11:51;3.80;99.90
5806;DHT22;2929;50.810;8.342;2022-11-12T21:14:37;3.80;99.90
5806;DHT22;2929;50.810;8.342;2022-11-12T21:17:22;3.90;99.90
5806;DHT22;2929;50.810;8.342;2022-11-12T21:20:08;3.90;99.90
5806;DHT22;2929;50.810;8.342;2022-11-12T21:22:56;4.00;99.90
5806;DHT22;2929;50.810;8.342;2022-11-12T21:25:41;4.00;99.90
5806;DHT22;2929;50.810;8.342;2022-11-12T21:28:27;4.10;99.90
5806;DHT22;2929;50.810;8.342;2022-11-12T21:31:14;4.10;99.90
5806;DHT22;2929;50.810;8.342;2022-11-12T21:34:01;4.10;99.90
5806;DHT22;2929;50.810;8.342;2022-11-12T21:36:47;4.10;99.90
5806;DHT22;2929;50.810;8.342;2022-11-12T21:39:34;4.00;99.90
5806;DHT22;2929;50.810;8.342;2022-11-12T21:42:20;4.00;99.90
5806;DHT22;2929;50.810;8.342;2022-11-12T21:45:06;3.90;99.90
5806;DHT22;2929;50.810;8.342;2022-11-12T21:47:52;3.80;99.90
5806;DHT22;2929;50.810;8.342;2022-11-12T21:50:38;3.90;99.90
5806;DHT22;2929;50.810;8.342;2022-11-12T21:53:24;3.90;99.90
5806;DHT22;2929;50.810;8.342;2022-11-12T21:56:12;3.90;99.90
5806;DHT22;2929;50.810;8.342;2022-11-12T21:58:58;4.00;99.90
5806;DHT22;2929;50.810;8.342;2022-11-12T22:01:44;4.00;99.90
5806;DHT22;2929;50.810;8.342;2022-11-12T22:04:30;4.00;99.90
5806;DHT22;2929;50.810;8.342;2022-11-12T22:07:16;4.00;99.90
5806;DHT22;2929;50.810;8.342;2022-11-12T22:10:02;3.90;99.90
5806;DHT22;2929;50.810;8.342;2022-11-12T22:12:49;3.90;99.90
5806;DHT22;2929;50.810;8.342;2022-11-12T22:15:34;3.90;99.90
5806;DHT22;2929;50.810;8.342;2022-11-12T22:18:20;3.90;99.90
5806;DHT22;2929;50.810;8.342;2022-11-12T22:21:07;4.00;99.90
5806;DHT22;2929;50.810;8.342;2022-11-12T22:23:54;3.90;99.90
5806;DHT22;2929;50.810;8.342;2022-11-12T22:26:40;4.00;99.90
5806;DHT22;2929;50.810;8.342;2022-11-12T22:29:27;3.90;99.90
5806;DHT22;2929;50.810;8.342;2022-11-12T22:32:12;3.90;99.90
5806;DHT22;2929;50.810;8.342;2022-11-12T22:34:58;3.90;99.90
5806;DHT22;2929;50.810;8.342;2022-11-12T22:37:44;4.00;99.90
5806;DHT22;2929;50.810;8.342;2022-11-12T22:40:29;3.90;99.90
5806;DHT22;2929;50.810;8.342;2022-11-12T22:43:15;3.80;99.90
5806;DHT22;2929;50.810;8.342;2022-11-12T22:46:06;3.80;99.90
5806;DHT22;2929;50.810;8.342;2022-11-12T22:48:54;3.80;99.90
5806;DHT22;2929;50.810;8.342;2022-11-12T22:51:39;3.80;99.90
5806;DHT22;2929;50.810;8.342;2022-11-12T22:54:25;3.80;99.90
5806;DHT22;2929;50.810;8.342;2022-11-12T22:57:11;3.80;99.90
5806;DHT22;2929;50.810;8.342;2022-11-12T22:59:56;3.80;99.90
5806;DHT22;2929;50.810;8.342;2022-11-12T23:02:43;3.80;99.90
5806;DHT22;2929;50.810;8.342;2022-11-12T23:05:29;3.80;99.90
5806;DHT22;2929;50.810;8.342;2022-11-12T23:08:15;3.80;99.90
5806;DHT22;2929;50.810;8.342;2022-11-12T23:11:01;3.80;99.90
5806;DHT22;2929;50.810;8.342;2022-11-12T23:13:47;3.70;99.90
5806;DHT22;2929;50.810;8.342;2022-11-12T23:16:33;3.70;99.90
5806;DHT22;2929;50.810;8.342;2022-11-12T23:19:20;3.60;99.90
5806;DHT22;2929;50.810;8.342;2022-11-12T23:22:06;3.50;99.90
5806;DHT22;2929;50.810;8.342;2022-11-12T23:24:51;3.50;99.90
5806;DHT22;2929;50.810;8.342;2022-11-12T23:27:37;3.50;99.90
5806;DHT22;2929;50.810;8.342;2022-11-12T23:30:23;3.50;99.90
5806;DHT22;2929;50.810;8.342;2022-11-12T23:33:09;3.50;99.90
5806;DHT22;2929;50.810;8.342;2022-11-12T23:36:02;3.40;99.90
5806;DHT22;2929;50.810;8.342;2022-11-12T23:38:48;3.30;99.90
5806;DHT22;2929;50.810;8.342;2022-11-12T23:41:34;3.30;99.90
5806;DHT22;2929;50.810;8.342;2022-11-12T23:44:20;3.20;99.90
5806;DHT22;2929;50.810;8.342;2022-11-12T23:47:05;3.10;99.90
5806;DHT22;2929;50.810;8.342;2022-11-12T23:49:51;3.10;99.90
5806;DHT22;2929;50.810;8.342;2022-11-12T23:52:38;3.00;99.90
5806;DHT22;2929;50.810;8.342;2022-11-12T23:55:24;2.90;99.90
5806;DHT22;2929;50.810;8.342;2022-11-12T23:58:10;2.90;99.90
